sensor_id;sensor_type;location;lat;lon;timestamp;P1;durP1;ratioP1;P2;durP2;ratioP2
3771;SDS011;1901;48.172;12.824;2023-09-07T00:01:52;7.60;;;6.90;;
3771;SDS011;1901;48.172;12.824;2023-09-07T00:04:19;7.33;;;6.63;;
3771;SDS011;1901;48.172;12.824;2023-09-07T00:06:47;9.20;;;6.90;;
3771;SDS011;1901;48.172;12.824;2023-09-07T00:09:15;14.80;;;7.03;;
3771;SDS011;1901;48.172;12.824;2023-09-07T00:11:43;11.53;;;9.03;;
3771;SDS011;1901;48.172;12.824;2023-09-07T00:14:11;10.53;;;6.93;;
3771;SDS011;1901;48.172;12.824;2023-09-07T00:16:39;18.03;;;7.40;;
3771;SDS011;1901;48.172;12.824;2023-09-07T00:19:06;14.87;;;8.70;;
3771;SDS011;1901;48.172;12.824;2023-09-07T00:21:33;13.17;;;8.60;;
3771;SDS011;1901;48.172;12.824;2023-09-07T00:24:00;14.33;;;7.90;;
3771;SDS011;1901;48.172;12.824;2023-09-07T00:26:30;11.87;;;7.93;;
3771;SDS011;1901;48.172;12.824;2023-09-07T00:28:57;11.80;;;7.97;;
3771;SDS011;1901;48.172;12.824;2023-09-07T00:31:26;9.53;;;7.83;;
3771;SDS011;1901;48.172;12.824;2023-09-07T00:33:53;11.67;;;8.07;;
3771;SDS011;1901;48.172;12.824;2023-09-07T00:36:20;11.50;;;6.83;;
3771;SDS011;1901;48.172;12.824;2023-09-07T00:38:47;9.27;;;6.60;;
3771;SDS011;1901;48.172;12.824;2023-09-07T00:41:15;7.40;;;6.60;;
3771;SDS011;1901;48.172;12.824;2023-09-07T00:43:42;8.53;;;6.80;;
3771;SDS011;1901;48.172;12.824;2023-09-07T00:46:09;8.07;;;6.70;;
3771;SDS011;1901;48.172;12.824;2023-09-07T00:48:38;10.97;;;6.77;;
3771;SDS011;1901;48.172;12.824;2023-09-07T00:51:05;12.40;;;7.57;;
3771;SDS011;1901;48.172;12.824;2023-09-07T00:53:33;9.03;;;7.07;;
3771;SDS011;1901;48.172;12.824;2023-09-07T00:56:00;6.73;;;6.03;;
3771;SDS011;1901;48.172;12.824;2023-09-07T00:58:29;10.20;;;6.97;;
3771;SDS011;1901;48.172;12.824;2023-09-07T01:00:56;7.70;;;6.90;;
3771;SDS011;1901;48.172;12.824;2023-09-07T01:03:23;8.10;;;7.33;;
3771;SDS011;1901;48.172;12.824;2023-09-07T01:05:52;10.10;;;6.90;;
3771;SDS011;1901;48.172;12.824;2023-09-07T01:08:23;11.80;;;7.13;;
3771;SDS011;1901;48.172;12.824;2023-09-07T01:10:51;10.30;;;8.30;;
3771;SDS011;1901;48.172;12.824;2023-09-07T01:13:18;11.10;;;7.00;;
3771;SDS011;1901;48.172;12.824;2023-09-07T01:15:46;11.40;;;7.23;;
3771;SDS011;1901;48.172;12.824;2023-09-07T01:18:13;11.50;;;7.67;;
3771;SDS011;1901;48.172;12.824;2023-09-07T01:20:40;8.77;;;7.87;;
3771;SDS011;1901;48.172;12.824;2023-09-07T01:23:09;11.33;;;7.97;;
3771;SDS011;1901;48.172;12.824;2023-09-07T01:25:37;14.67;;;8.90;;
3771;SDS011;1901;48.172;12.824;2023-09-07T01:28:04;17.83;;;8.50;;
3771;SDS011;1901;48.172;12.824;2023-09-07T01:30:34;7.50;;;6.77;;
3771;SDS011;1901;48.172;12.824;2023-09-07T01:33:01;12.30;;;7.80;;
3771;SDS011;1901;48.172;12.824;2023-09-07T01:35:29;9.53;;;7.20;;
3771;SDS011;1901;48.172;12.824;2023-09-07T01:37:57;9.47;;;6.63;;
3771;SDS011;1901;48.172;12.824;2023-09-07T01:40:25;8.30;;;7.40;;
3771;SDS011;1901;48.172;12.824;2023-09-07T01:42:53;10.10;;;7.30;;
3771;SDS011;1901;48.172;12.824;2023-09-07T01:45:20;9.33;;;7.10;;
3771;SDS011;1901;48.172;12.824;2023-09-07T01:47:48;8.30;;;6.83;;
3771;SDS011;1901;48.172;12.824;2023-09-07T01:50:16;8.00;;;7.30;;
3771;SDS011;1901;48.172;12.824;2023-09-07T01:52:45;13.20;;;6.80;;
3771;SDS011;1901;48.172;12.824;2023-09-07T01:55:12;8.27;;;7.30;;
3771;SDS011;1901;48.172;12.824;2023-09-07T01:57:40;8.33;;;7.17;;
3771;SDS011;1901;48.172;12.824;2023-09-07T02:00:08;7.60;;;6.90;;
3771;SDS011;1901;48.172;12.824;2023-09-07T02:02:35;10.03;;;7.30;;
3771;SDS011;1901;48.172;12.824;2023-09-07T02:05:03;8.77;;;7.90;;
3771;SDS011;1901;48.172;12.824;2023-09-07T02:07:30;9.07;;;8.10;;
3771;SDS011;1901;48.172;12.824;2023-09-07T02:09:57;7.90;;;6.63;;
3771;SDS011;1901;48.172;12.824;2023-09-07T02:12:24;9.60;;;7.43;;
3771;SDS011;1901;48.172;12.824;2023-09-07T02:14:53;8.43;;;7.57;;
3771;SDS011;1901;48.172;12.824;2023-09-07T02:17:20;9.63;;;7.60;;
3771;SDS011;1901;48.172;12.824;2023-09-07T02:19:47;8.60;;;7.80;;
3771;SDS011;1901;48.172;12.824;2023-09-07T02:22:15;11.07;;;8.23;;
3771;SDS011;1901;48.172;12.824;2023-09-07T02:24:42;11.00;;;8.60;;
3771;SDS011;1901;48.172;12.824;2023-09-07T02:27:09;9.00;;;8.10;;
3771;SDS011;1901;48.172;12.824;2023-09-07T02:29:40;12.87;;;8.00;;
3771;SDS011;1901;48.172;12.824;2023-09-07T02:32:08;11.87;;;9.47;;
3771;SDS011;1901;48.172;12.824;2023-09-07T02:34:39;9.90;;;8.50;;
3771;SDS011;1901;48.172;12.824;2023-09-07T02:37:07;9.90;;;8.90;;
3771;SDS011;1901;48.172;12.824;2023-09-07T02:39:34;10.97;;;8.77;;
3771;SDS011;1901;48.172;12.824;2023-09-07T02:42:01;9.17;;;8.33;;
3771;SDS011;1901;48.172;12.824;2023-09-07T02:44:29;11.00;;;8.87;;
3771;SDS011;1901;48.172;12.824;2023-09-07T02:46:56;15.57;;;9.60;;
3771;SDS011;1901;48.172;12.824;2023-09-07T02:49:24;9.57;;;8.67;;
3771;SDS011;1901;48.172;12.824;2023-09-07T02:51:51;12.83;;;10.57;;
3771;SDS011;1901;48.172;12.824;2023-09-07T02:54:19;15.23;;;8.67;;
3771;SDS011;1901;48.172;12.824;2023-09-07T02:56:46;10.97;;;9.43;;
3771;SDS011;1901;48.172;12.824;2023-09-07T02:59:14;10.23;;;7.73;;
3771;SDS011;1901;48.172;12.824;2023-09-07T03:01:41;10.60;;;9.17;;
3771;SDS011;1901;48.172;12.824;2023-09-07T03:04:08;16.73;;;9.03;;
3771;SDS011;1901;48.172;12.824;2023-09-07T03:06:37;10.10;;;8.93;;
3771;SDS011;1901;48.172;12.824;2023-09-07T03:09:04;8.67;;;7.80;;
3771;SDS011;1901;48.172;12.824;2023-09-07T03:11:34;9.23;;;8.33;;
3771;SDS011;1901;48.172;12.824;2023-09-07T03:14:01;9.60;;;8.53;;
3771;SDS011;1901;48.172;12.824;2023-09-07T03:16:28;9.20;;;8.30;;
3771;SDS011;1901;48.172;12.824;2023-09-07T03:18:56;12.53;;;8.77;;
3771;SDS011;1901;48.172;12.824;2023-09-07T03:21:23;10.17;;;8.33;;
3771;SDS011;1901;48.172;12.824;2023-09-07T03:23:55;9.60;;;8.60;;
3771;SDS011;1901;48.172;12.824;2023-09-07T03:26:23;10.00;;;9.00;;
3771;SDS011;1901;48.172;12.824;2023-09-07T03:28:50;10.07;;;8.93;;
3771;SDS011;1901;48.172;12.824;2023-09-07T03:31:18;9.80;;;8.80;;
3771;SDS011;1901;48.172;12.824;2023-09-07T03:33:45;12.53;;;10.27;;
3771;SDS011;1901;48.172;12.824;2023-09-07T03:36:12;10.53;;;9.53;;
3771;SDS011;1901;48.172;12.824;2023-09-07T03:38:40;16.93;;;9.77;;
3771;SDS011;1901;48.172;12.824;2023-09-07T03:41:08;11.53;;;9.30;;
3771;SDS011;1901;48.172;12.824;2023-09-07T03:43:35;11.33;;;10.13;;
3771;SDS011;1901;48.172;12.824;2023-09-07T03:46:02;10.67;;;9.57;;
3771;SDS011;1901;48.172;12.824;2023-09-07T03:48:30;11.90;;;10.10;;
3771;SDS011;1901;48.172;12.824;2023-09-07T03:50:57;15.40;;;11.23;;
3771;SDS011;1901;48.172;12.824;2023-09-07T03:53:24;12.50;;;9.77;;
3771;SDS011;1901;48.172;12.824;2023-09-07T03:55:51;12.30;;;10.27;;
3771;SDS011;1901;48.172;12.824;2023-09-07T03:58:20;11.63;;;10.43;;
3771;SDS011;1901;48.172;12.824;2023-09-07T04:00:47;12.60;;;10.13;;
3771;SDS011;1901;48.172;12.824;2023-09-07T04:03:14;13.83;;;10.97;;
3771;SDS011;1901;48.172;12.824;2023-09-07T04:05:41;11.77;;;9.53;;
3771;SDS011;1901;48.172;12.824;2023-09-07T04:08:08;14.70;;;9.87;;
3771;SDS011;1901;48.172;12.824;2023-09-07T04:10:36;12.63;;;9.63;;
3771;SDS011;1901;48.172;12.824;2023-09-07T04:13:04;11.67;;;9.93;;
3771;SDS011;1901;48.172;12.824;2023-09-07T04:15:33;13.10;;;10.40;;
3771;SDS011;1901;48.172;12.824;2023-09-07T04:18:01;17.87;;;10.17;;
3771;SDS011;1901;48.172;12.824;2023-09-07T04:20:28;19.87;;;13.63;;
3771;SDS011;1901;48.172;12.824;2023-09-07T04:22:55;10.50;;;9.33;;
3771;SDS011;1901;48.172;12.824;2023-09-07T04:25:22;10.07;;;9.00;;
3771;SDS011;1901;48.172;12.824;2023-09-07T04:27:51;11.40;;;9.10;;
3771;SDS011;1901;48.172;12.824;2023-09-07T04:30:18;13.93;;;9.17;;
3771;SDS011;1901;48.172;12.824;2023-09-07T04:32:46;10.10;;;9.10;;
3771;SDS011;1901;48.172;12.824;2023-09-07T04:35:14;10.73;;;9.20;;
3771;SDS011;1901;48.172;12.824;2023-09-07T04:37:41;13.47;;;10.77;;
3771;SDS011;1901;48.172;12.824;2023-09-07T04:40:09;10.73;;;9.13;;
3771;SDS011;1901;48.172;12.824;2023-09-07T04:42:36;12.40;;;9.67;;
3771;SDS011;1901;48.172;12.824;2023-09-07T04:45:04;11.97;;;9.23;;
3771;SDS011;1901;48.172;12.824;2023-09-07T04:47:32;10.33;;;9.33;;
3771;SDS011;1901;48.172;12.824;2023-09-07T04:50:00;11.57;;;10.33;;
3771;SDS011;1901;48.172;12.824;2023-09-07T04:52:29;10.67;;;8.87;;
3771;SDS011;1901;48.172;12.824;2023-09-07T04:54:56;17.03;;;8.73;;
3771;SDS011;1901;48.172;12.824;2023-09-07T04:57:23;9.83;;;8.30;;
3771;SDS011;1901;48.172;12.824;2023-09-07T04:59:50;14.83;;;9.03;;
3771;SDS011;1901;48.172;12.824;2023-09-07T05:02:18;26.10;;;13.27;;
3771;SDS011;1901;48.172;12.824;2023-09-07T05:04:45;15.87;;;8.87;;
3771;SDS011;1901;48.172;12.824;2023-09-07T05:07:13;20.37;;;15.33;;
3771;SDS011;1901;48.172;12.824;2023-09-07T05:09:40;16.87;;;13.47;;
3771;SDS011;1901;48.172;12.824;2023-09-07T05:12:08;12.50;;;8.27;;
3771;SDS011;1901;48.172;12.824;2023-09-07T05:14:35;10.43;;;8.27;;
3771;SDS011;1901;48.172;12.824;2023-09-07T05:17:03;8.90;;;8.00;;
3771;SDS011;1901;48.172;12.824;2023-09-07T05:19:30;16.20;;;9.03;;
3771;SDS011;1901;48.172;12.824;2023-09-07T05:21:57;9.10;;;8.20;;
3771;SDS011;1901;48.172;12.824;2023-09-07T05:24:25;22.10;;;13.30;;
3771;SDS011;1901;48.172;12.824;2023-09-07T05:26:53;11.87;;;9.47;;
3771;SDS011;1901;48.172;12.824;2023-09-07T05:29:20;9.23;;;7.00;;
3771;SDS011;1901;48.172;12.824;2023-09-07T05:31:47;8.00;;;7.20;;
3771;SDS011;1901;48.172;12.824;2023-09-07T05:34:15;7.10;;;6.50;;
3771;SDS011;1901;48.172;12.824;2023-09-07T05:36:42;8.03;;;6.80;;
3771;SDS011;1901;48.172;12.824;2023-09-07T05:39:09;8.47;;;7.20;;
3771;SDS011;1901;48.172;12.824;2023-09-07T05:41:37;9.17;;;7.90;;
3771;SDS011;1901;48.172;12.824;2023-09-07T05:44:04;7.13;;;6.53;;
3771;SDS011;1901;48.172;12.824;2023-09-07T05:46:32;10.03;;;7.57;;
3771;SDS011;1901;48.172;12.824;2023-09-07T05:48:59;8.40;;;6.30;;
3771;SDS011;1901;48.172;12.824;2023-09-07T05:51:26;9.23;;;7.57;;
3771;SDS011;1901;48.172;12.824;2023-09-07T05:53:56;8.37;;;7.37;;
3771;SDS011;1901;48.172;12.824;2023-09-07T05:56:26;7.33;;;6.73;;
3771;SDS011;1901;48.172;12.824;2023-09-07T05:58:56;8.23;;;7.43;;
3771;SDS011;1901;48.172;12.824;2023-09-07T06:01:23;7.50;;;6.70;;
3771;SDS011;1901;48.172;12.824;2023-09-07T06:03:50;7.63;;;6.60;;
3771;SDS011;1901;48.172;12.824;2023-09-07T06:06:18;9.93;;;6.90;;
3771;SDS011;1901;48.172;12.824;2023-09-07T06:08:45;5.67;;;5.10;;
3771;SDS011;1901;48.172;12.824;2023-09-07T06:11:12;5.80;;;5.30;;
3771;SDS011;1901;48.172;12.824;2023-09-07T06:13:39;4.97;;;4.57;;
3771;SDS011;1901;48.172;12.824;2023-09-07T06:16:08;5.30;;;4.80;;
3771;SDS011;1901;48.172;12.824;2023-09-07T06:18:35;6.70;;;5.20;;
3771;SDS011;1901;48.172;12.824;2023-09-07T06:21:02;4.93;;;4.50;;
3771;SDS011;1901;48.172;12.824;2023-09-07T06:23:30;5.00;;;4.60;;
3771;SDS011;1901;48.172;12.824;2023-09-07T06:25:58;5.53;;;5.03;;
3771;SDS011;1901;48.172;12.824;2023-09-07T06:28:25;10.80;;;4.83;;
3771;SDS011;1901;48.172;12.824;2023-09-07T06:30:52;6.53;;;4.23;;
3771;SDS011;1901;48.172;12.824;2023-09-07T06:33:20;6.20;;;4.30;;
3771;SDS011;1901;48.172;12.824;2023-09-07T06:35:48;5.27;;;4.77;;
3771;SDS011;1901;48.172;12.824;2023-09-07T06:38:15;4.03;;;3.67;;
3771;SDS011;1901;48.172;12.824;2023-09-07T06:40:46;8.10;;;4.60;;
3771;SDS011;1901;48.172;12.824;2023-09-07T06:43:14;4.20;;;3.87;;
3771;SDS011;1901;48.172;12.824;2023-09-07T06:45:41;6.20;;;4.10;;
3771;SDS011;1901;48.172;12.824;2023-09-07T06:48:08;4.10;;;3.80;;
3771;SDS011;1901;48.172;12.824;2023-09-07T06:50:36;4.10;;;3.67;;
3771;SDS011;1901;48.172;12.824;2023-09-07T06:53:04;4.10;;;3.70;;
3771;SDS011;1901;48.172;12.824;2023-09-07T06:55:31;4.50;;;3.37;;
3771;SDS011;1901;48.172;12.824;2023-09-07T06:57:58;9.03;;;4.17;;
3771;SDS011;1901;48.172;12.824;2023-09-07T07:00:26;7.13;;;4.33;;
3771;SDS011;1901;48.172;12.824;2023-09-07T07:02:53;7.30;;;5.30;;
3771;SDS011;1901;48.172;12.824;2023-09-07T07:05:21;5.57;;;3.83;;
3771;SDS011;1901;48.172;12.824;2023-09-07T07:07:50;14.33;;;3.80;;
3771;SDS011;1901;48.172;12.824;2023-09-07T07:10:17;4.57;;;4.13;;
3771;SDS011;1901;48.172;12.824;2023-09-07T07:12:44;6.23;;;4.63;;
3771;SDS011;1901;48.172;12.824;2023-09-07T07:15:11;4.37;;;3.77;;
3771;SDS011;1901;48.172;12.824;2023-09-07T07:17:38;8.53;;;4.23;;
3771;SDS011;1901;48.172;12.824;2023-09-07T07:20:06;6.80;;;4.40;;
3771;SDS011;1901;48.172;12.824;2023-09-07T07:22:33;6.50;;;4.80;;
3771;SDS011;1901;48.172;12.824;2023-09-07T07:25:02;4.27;;;3.87;;
3771;SDS011;1901;48.172;12.824;2023-09-07T07:27:30;4.20;;;3.80;;
3771;SDS011;1901;48.172;12.824;2023-09-07T07:29:58;4.70;;;4.30;;
3771;SDS011;1901;48.172;12.824;2023-09-07T07:32:25;6.03;;;3.73;;
3771;SDS011;1901;48.172;12.824;2023-09-07T07:34:52;5.07;;;4.67;;
3771;SDS011;1901;48.172;12.824;2023-09-07T07:37:19;7.83;;;5.50;;
3771;SDS011;1901;48.172;12.824;2023-09-07T07:39:46;4.83;;;4.43;;
3771;SDS011;1901;48.172;12.824;2023-09-07T07:42:15;7.03;;;3.83;;
3771;SDS011;1901;48.172;12.824;2023-09-07T07:44:43;5.13;;;4.73;;
3771;SDS011;1901;48.172;12.824;2023-09-07T07:47:10;5.50;;;5.00;;
3771;SDS011;1901;48.172;12.824;2023-09-07T07:49:37;4.33;;;4.03;;
3771;SDS011;1901;48.172;12.824;2023-09-07T07:52:05;4.87;;;4.43;;
3771;SDS011;1901;48.172;12.824;2023-09-07T07:54:33;9.93;;;4.43;;
3771;SDS011;1901;48.172;12.824;2023-09-07T07:57:00;7.80;;;4.30;;
3771;SDS011;1901;48.172;12.824;2023-09-07T07:59:29;7.83;;;4.77;;
3771;SDS011;1901;48.172;12.824;2023-09-07T08:01:56;4.50;;;4.10;;
3771;SDS011;1901;48.172;12.824;2023-09-07T08:04:23;4.47;;;4.07;;
3771;SDS011;1901;48.172;12.824;2023-09-07T08:06:50;4.23;;;3.83;;
3771;SDS011;1901;48.172;12.824;2023-09-07T08:09:21;4.50;;;4.10;;
3771;SDS011;1901;48.172;12.824;2023-09-07T08:11:48;5.37;;;3.90;;
3771;SDS011;1901;48.172;12.824;2023-09-07T08:14:16;5.23;;;4.73;;
3771;SDS011;1901;48.172;12.824;2023-09-07T08:16:45;11.60;;;5.17;;
3771;SDS011;1901;48.172;12.824;2023-09-07T08:19:12;5.90;;;5.10;;
3771;SDS011;1901;48.172;12.824;2023-09-07T08:21:39;5.00;;;4.60;;
3771;SDS011;1901;48.172;12.824;2023-09-07T08:24:07;6.50;;;4.17;;
3771;SDS011;1901;48.172;12.824;2023-09-07T08:26:35;5.17;;;4.67;;
3771;SDS011;1901;48.172;12.824;2023-09-07T08:29:02;4.60;;;4.20;;
3771;SDS011;1901;48.172;12.824;2023-09-07T08:31:32;4.47;;;3.83;;
3771;SDS011;1901;48.172;12.824;2023-09-07T08:34:01;4.60;;;4.20;;
3771;SDS011;1901;48.172;12.824;2023-09-07T08:36:28;4.40;;;4.07;;
3771;SDS011;1901;48.172;12.824;2023-09-07T08:38:57;4.27;;;3.80;;
3771;SDS011;1901;48.172;12.824;2023-09-07T08:41:26;4.50;;;4.10;;
3771;SDS011;1901;48.172;12.824;2023-09-07T08:43:53;4.43;;;3.83;;
3771;SDS011;1901;48.172;12.824;2023-09-07T08:46:22;5.07;;;4.20;;
3771;SDS011;1901;48.172;12.824;2023-09-07T08:48:49;4.83;;;4.43;;
3771;SDS011;1901;48.172;12.824;2023-09-07T08:51:18;4.30;;;3.70;;
3771;SDS011;1901;48.172;12.824;2023-09-07T08:53:46;4.80;;;4.40;;
3771;SDS011;1901;48.172;12.824;2023-09-07T08:56:14;4.43;;;4.03;;
3771;SDS011;1901;48.172;12.824;2023-09-07T08:58:41;6.73;;;5.10;;
3771;SDS011;1901;48.172;12.824;2023-09-07T09:01:09;4.67;;;4.27;;
3771;SDS011;1901;48.172;12.824;2023-09-07T09:03:37;5.83;;;4.20;;
3771;SDS011;1901;48.172;12.824;2023-09-07T09:06:05;4.43;;;4.03;;
3771;SDS011;1901;48.172;12.824;2023-09-07T09:08:42;4.50;;;4.10;;
3771;SDS011;1901;48.172;12.824;2023-09-07T09:11:09;4.40;;;4.00;;
3771;SDS011;1901;48.172;12.824;2023-09-07T09:13:36;5.13;;;4.17;;
3771;SDS011;1901;48.172;12.824;2023-09-07T09:16:04;4.50;;;4.10;;
3771;SDS011;1901;48.172;12.824;2023-09-07T09:18:31;7.00;;;4.43;;
3771;SDS011;1901;48.172;12.824;2023-09-07T09:20:58;9.33;;;4.60;;
3771;SDS011;1901;48.172;12.824;2023-09-07T09:23:29;5.53;;;4.20;;
3771;SDS011;1901;48.172;12.824;2023-09-07T09:25:59;4.13;;;3.63;;
3771;SDS011;1901;48.172;12.824;2023-09-07T09:28:28;4.70;;;4.20;;
3771;SDS011;1901;48.172;12.824;2023-09-07T09:30:56;5.37;;;4.73;;
3771;SDS011;1901;48.172;12.824;2023-09-07T09:33:24;4.70;;;4.10;;
3771;SDS011;1901;48.172;12.824;2023-09-07T09:35:53;4.97;;;4.47;;
3771;SDS011;1901;48.172;12.824;2023-09-07T09:38:21;12.00;;;4.33;;
3771;SDS011;1901;48.172;12.824;2023-09-07T09:40:49;6.80;;;4.43;;
3771;SDS011;1901;48.172;12.824;2023-09-07T09:43:17;7.00;;;4.10;;
3771;SDS011;1901;48.172;12.824;2023-09-07T09:45:46;5.03;;;4.20;;
3771;SDS011;1901;48.172;12.824;2023-09-07T09:48:16;5.83;;;4.03;;
3771;SDS011;1901;48.172;12.824;2023-09-07T09:50:43;6.87;;;4.20;;
3771;SDS011;1901;48.172;12.824;2023-09-07T09:53:12;4.17;;;3.57;;
3771;SDS011;1901;48.172;12.824;2023-09-07T09:55:43;4.50;;;4.10;;
3771;SDS011;1901;48.172;12.824;2023-09-07T09:58:11;5.10;;;4.70;;
3771;SDS011;1901;48.172;12.824;2023-09-07T10:00:41;6.73;;;5.20;;
3771;SDS011;1901;48.172;12.824;2023-09-07T10:03:10;11.00;;;4.10;;
3771;SDS011;1901;48.172;12.824;2023-09-07T10:05:39;5.00;;;4.50;;
3771;SDS011;1901;48.172;12.824;2023-09-07T10:08:08;8.77;;;4.60;;
3771;SDS011;1901;48.172;12.824;2023-09-07T10:10:36;4.20;;;3.80;;
3771;SDS011;1901;48.172;12.824;2023-09-07T10:13:04;8.20;;;3.67;;
3771;SDS011;1901;48.172;12.824;2023-09-07T10:15:31;6.00;;;4.83;;
3771;SDS011;1901;48.172;12.824;2023-09-07T10:18:10;4.50;;;4.10;;
3771;SDS011;1901;48.172;12.824;2023-09-07T10:20:48;6.23;;;4.20;;
3771;SDS011;1901;48.172;12.824;2023-09-07T10:23:15;6.13;;;4.23;;
3771;SDS011;1901;48.172;12.824;2023-09-07T10:25:47;3.90;;;3.60;;
3771;SDS011;1901;48.172;12.824;2023-09-07T10:28:21;5.73;;;4.00;;
3771;SDS011;1901;48.172;12.824;2023-09-07T10:31:12;6.67;;;4.80;;
3771;SDS011;1901;48.172;12.824;2023-09-07T10:33:40;4.90;;;4.10;;
3771;SDS011;1901;48.172;12.824;2023-09-07T10:36:08;11.37;;;6.23;;
3771;SDS011;1901;48.172;12.824;2023-09-07T10:38:35;4.83;;;4.33;;
3771;SDS011;1901;48.172;12.824;2023-09-07T10:41:04;9.23;;;4.07;;
3771;SDS011;1901;48.172;12.824;2023-09-07T10:43:32;7.50;;;4.10;;
3771;SDS011;1901;48.172;12.824;2023-09-07T10:45:59;8.00;;;4.60;;
3771;SDS011;1901;48.172;12.824;2023-09-07T10:48:28;9.13;;;3.97;;
3771;SDS011;1901;48.172;12.824;2023-09-07T10:50:57;5.37;;;4.40;;
3771;SDS011;1901;48.172;12.824;2023-09-07T10:53:25;4.80;;;4.07;;
3771;SDS011;1901;48.172;12.824;2023-09-07T10:55:53;4.47;;;4.07;;
3771;SDS011;1901;48.172;12.824;2023-09-07T10:58:25;4.63;;;4.23;;
3771;SDS011;1901;48.172;12.824;2023-09-07T11:00:52;6.47;;;4.70;;
3771;SDS011;1901;48.172;12.824;2023-09-07T11:03:19;7.27;;;4.60;;
3771;SDS011;1901;48.172;12.824;2023-09-07T11:05:47;4.70;;;4.30;;
3771;SDS011;1901;48.172;12.824;2023-09-07T11:08:16;5.13;;;4.27;;
3771;SDS011;1901;48.172;12.824;2023-09-07T11:10:43;4.40;;;4.10;;
3771;SDS011;1901;48.172;12.824;2023-09-07T11:13:10;5.80;;;3.90;;
3771;SDS011;1901;48.172;12.824;2023-09-07T11:15:38;8.87;;;4.03;;
3771;SDS011;1901;48.172;12.824;2023-09-07T11:18:05;4.37;;;3.97;;
3771;SDS011;1901;48.172;12.824;2023-09-07T11:20:33;4.57;;;4.17;;
3771;SDS011;1901;48.172;12.824;2023-09-07T11:23:00;5.13;;;4.10;;
3771;SDS011;1901;48.172;12.824;2023-09-07T11:25:33;4.00;;;3.70;;
3771;SDS011;1901;48.172;12.824;2023-09-07T11:28:01;6.40;;;4.53;;
3771;SDS011;1901;48.172;12.824;2023-09-07T11:30:28;4.30;;;3.90;;
3771;SDS011;1901;48.172;12.824;2023-09-07T11:33:02;5.93;;;3.97;;
3771;SDS011;1901;48.172;12.824;2023-09-07T11:35:29;4.70;;;4.20;;
3771;SDS011;1901;48.172;12.824;2023-09-07T11:37:56;5.53;;;4.23;;
3771;SDS011;1901;48.172;12.824;2023-09-07T11:40:23;5.70;;;4.13;;
3771;SDS011;1901;48.172;12.824;2023-09-07T11:42:52;5.63;;;3.90;;
3771;SDS011;1901;48.172;12.824;2023-09-07T11:45:19;4.87;;;4.37;;
3771;SDS011;1901;48.172;12.824;2023-09-07T11:47:46;6.10;;;4.43;;
3771;SDS011;1901;48.172;12.824;2023-09-07T11:50:13;7.10;;;4.57;;
3771;SDS011;1901;48.172;12.824;2023-09-07T11:52:40;6.50;;;4.90;;
3771;SDS011;1901;48.172;12.824;2023-09-07T11:55:08;6.30;;;4.73;;
3771;SDS011;1901;48.172;12.824;2023-09-07T11:57:35;5.70;;;4.13;;
3771;SDS011;1901;48.172;12.824;2023-09-07T12:00:07;5.57;;;4.40;;
3771;SDS011;1901;48.172;12.824;2023-09-07T12:02:36;6.27;;;5.37;;
3771;SDS011;1901;48.172;12.824;2023-09-07T12:05:04;22.17;;;14.97;;
3771;SDS011;1901;48.172;12.824;2023-09-07T12:07:32;5.43;;;4.87;;
3771;SDS011;1901;48.172;12.824;2023-09-07T12:10:00;4.37;;;3.97;;
3771;SDS011;1901;48.172;12.824;2023-09-07T12:12:27;9.00;;;4.00;;
3771;SDS011;1901;48.172;12.824;2023-09-07T12:14:54;4.40;;;3.70;;
3771;SDS011;1901;48.172;12.824;2023-09-07T12:17:23;5.67;;;4.93;;
3771;SDS011;1901;48.172;12.824;2023-09-07T12:19:50;9.17;;;4.43;;
3771;SDS011;1901;48.172;12.824;2023-09-07T12:22:17;5.80;;;4.30;;
3771;SDS011;1901;48.172;12.824;2023-09-07T12:24:45;7.10;;;4.60;;
3771;SDS011;1901;48.172;12.824;2023-09-07T12:27:12;4.53;;;4.10;;
3771;SDS011;1901;48.172;12.824;2023-09-07T12:29:39;7.80;;;4.20;;
3771;SDS011;1901;48.172;12.824;2023-09-07T12:32:06;5.20;;;4.70;;
3771;SDS011;1901;48.172;12.824;2023-09-07T12:34:35;6.60;;;4.40;;
3771;SDS011;1901;48.172;12.824;2023-09-07T12:37:02;6.13;;;4.17;;
3771;SDS011;1901;48.172;12.824;2023-09-07T12:39:30;11.93;;;5.20;;
3771;SDS011;1901;48.172;12.824;2023-09-07T12:41:57;5.87;;;4.90;;
3771;SDS011;1901;48.172;12.824;2023-09-07T12:44:24;8.77;;;3.80;;
3771;SDS011;1901;48.172;12.824;2023-09-07T12:46:51;4.20;;;3.80;;
3771;SDS011;1901;48.172;12.824;2023-09-07T12:49:19;5.10;;;3.70;;
3771;SDS011;1901;48.172;12.824;2023-09-07T12:51:47;6.40;;;3.40;;
3771;SDS011;1901;48.172;12.824;2023-09-07T12:54:14;4.63;;;4.23;;
3771;SDS011;1901;48.172;12.824;2023-09-07T12:56:42;11.00;;;5.07;;
3771;SDS011;1901;48.172;12.824;2023-09-07T12:59:10;5.07;;;3.97;;
3771;SDS011;1901;48.172;12.824;2023-09-07T13:01:37;5.20;;;4.80;;
3771;SDS011;1901;48.172;12.824;2023-09-07T13:04:05;4.27;;;3.83;;
3771;SDS011;1901;48.172;12.824;2023-09-07T13:06:32;4.80;;;4.33;;
3771;SDS011;1901;48.172;12.824;2023-09-07T13:09:00;7.30;;;4.70;;
3771;SDS011;1901;48.172;12.824;2023-09-07T13:11:29;4.63;;;4.03;;
3771;SDS011;1901;48.172;12.824;2023-09-07T13:13:56;5.43;;;4.37;;
3771;SDS011;1901;48.172;12.824;2023-09-07T13:16:24;5.60;;;4.97;;
3771;SDS011;1901;48.172;12.824;2023-09-07T13:18:51;6.17;;;4.60;;
3771;SDS011;1901;48.172;12.824;2023-09-07T13:21:18;5.57;;;4.40;;
3771;SDS011;1901;48.172;12.824;2023-09-07T13:23:45;8.33;;;4.90;;
3771;SDS011;1901;48.172;12.824;2023-09-07T13:26:14;4.60;;;3.90;;
3771;SDS011;1901;48.172;12.824;2023-09-07T13:28:41;7.03;;;4.67;;
3771;SDS011;1901;48.172;12.824;2023-09-07T13:31:08;5.00;;;4.30;;
3771;SDS011;1901;48.172;12.824;2023-09-07T13:33:36;5.10;;;4.20;;
3771;SDS011;1901;48.172;12.824;2023-09-07T13:36:03;4.70;;;3.80;;
3771;SDS011;1901;48.172;12.824;2023-09-07T13:38:30;4.30;;;3.90;;
3771;SDS011;1901;48.172;12.824;2023-09-07T13:40:57;6.50;;;3.80;;
3771;SDS011;1901;48.172;12.824;2023-09-07T13:43:26;13.27;;;4.23;;
3771;SDS011;1901;48.172;12.824;2023-09-07T13:45:53;5.50;;;4.03;;
3771;SDS011;1901;48.172;12.824;2023-09-07T13:48:20;5.73;;;3.93;;
3771;SDS011;1901;48.172;12.824;2023-09-07T13:50:47;6.20;;;3.33;;
3771;SDS011;1901;48.172;12.824;2023-09-07T13:53:15;5.20;;;4.63;;
3771;SDS011;1901;48.172;12.824;2023-09-07T13:55:42;4.63;;;4.20;;
3771;SDS011;1901;48.172;12.824;2023-09-07T13:58:11;5.13;;;4.10;;
3771;SDS011;1901;48.172;12.824;2023-09-07T14:00:39;6.57;;;4.20;;
3771;SDS011;1901;48.172;12.824;2023-09-07T14:03:07;12.30;;;5.43;;
3771;SDS011;1901;48.172;12.824;2023-09-07T14:05:34;4.63;;;4.17;;
3771;SDS011;1901;48.172;12.824;2023-09-07T14:08:01;4.93;;;4.30;;
3771;SDS011;1901;48.172;12.824;2023-09-07T14:10:28;5.63;;;3.90;;
3771;SDS011;1901;48.172;12.824;2023-09-07T14:12:55;4.63;;;4.10;;
3771;SDS011;1901;48.172;12.824;2023-09-07T14:15:22;5.43;;;3.90;;
3771;SDS011;1901;48.172;12.824;2023-09-07T14:17:51;7.10;;;4.33;;
3771;SDS011;1901;48.172;12.824;2023-09-07T14:20:18;5.47;;;3.87;;
3771;SDS011;1901;48.172;12.824;2023-09-07T14:22:45;6.27;;;4.00;;
3771;SDS011;1901;48.172;12.824;2023-09-07T14:25:13;4.20;;;3.40;;
3771;SDS011;1901;48.172;12.824;2023-09-07T14:27:41;8.03;;;4.10;;
3771;SDS011;1901;48.172;12.824;2023-09-07T14:30:09;5.70;;;3.30;;
3771;SDS011;1901;48.172;12.824;2023-09-07T14:32:36;6.13;;;5.03;;
3771;SDS011;1901;48.172;12.824;2023-09-07T14:35:06;4.73;;;4.23;;
3771;SDS011;1901;48.172;12.824;2023-09-07T14:37:34;4.73;;;3.90;;
3771;SDS011;1901;48.172;12.824;2023-09-07T14:40:01;5.03;;;4.23;;
3771;SDS011;1901;48.172;12.824;2023-09-07T14:42:28;4.80;;;3.93;;
3771;SDS011;1901;48.172;12.824;2023-09-07T14:44:55;5.50;;;4.97;;
3771;SDS011;1901;48.172;12.824;2023-09-07T14:47:25;13.37;;;4.43;;
3771;SDS011;1901;48.172;12.824;2023-09-07T14:49:52;8.10;;;4.03;;
3771;SDS011;1901;48.172;12.824;2023-09-07T14:52:20;3.97;;;3.67;;
3771;SDS011;1901;48.172;12.824;2023-09-07T14:54:49;4.53;;;4.13;;
3771;SDS011;1901;48.172;12.824;2023-09-07T14:57:16;4.20;;;3.73;;
3771;SDS011;1901;48.172;12.824;2023-09-07T14:59:44;6.83;;;5.27;;
3771;SDS011;1901;48.172;12.824;2023-09-07T15:02:11;7.13;;;4.67;;